Bookmark and Share
Track history (hours):
 

Armadores 1

Last reported at 2014-Apr-11 04:22 UTC. Time now 2014-Apr-24 14:02 UTC.
Position N 37°44' E 024°18'.
Warning: this ship's position is 13 days out of date.

Length 30 m; draft 4.5 m.

Type: Tug. MMSI: 240694000.

NotesDate/timePositionNaut miles runAvg speedWind from/ knotsBaromVisibWave heightAir tempDewpointWater temp
2014-Apr-11 04:22N 37°44' E 024°18'6 7.4
2014-Apr-11 03:32N 37°40' E 024°12'7 7.4
2014-Apr-11 02:33N 37°37' E 024°04'16 7.8
2014-Apr-11 00:33N 37°43' E 023°46'8 8.1
2014-Apr-10 23:33N 37°50' E 023°40'8 8.3
2014-Apr-10 22:33N 37°57' E 023°35'2 1.5
2014-Apr-10 21:33N 37°58' E 023°34'0 0.0
2014-Apr-10 20:33N 37°58' E 023°34'0 0.0
2014-Apr-10 13:33N 37°58' E 023°34'0 0.0
2014-Apr-10 12:33N 37°58' E 023°34'1 0.3
2014-Apr-10 10:08N 37°58' E 023°33'1 1.3
2014-Apr-10 09:33N 37°58' E 023°34'0 0.0
2014-Apr-10 08:31N 37°58' E 023°34'0 0.0
2014-Apr-10 07:33N 37°58' E 023°34'0 0.1
2014-Apr-10 06:32N 37°58' E 023°34'0 0.0
2014-Apr-10 05:33N 37°58' E 023°34'2 2.0
2014-Apr-10 04:33N 37°57' E 023°36'1 0.8
2014-Apr-10 03:33N 37°56' E 023°37'1 0.0
2014-Apr-08 06:33N 37°56' E 023°38'2 2.0
2014-Apr-08 05:33N 37°57' E 023°36'0 0.0
2014-Apr-08 02:18N 37°57' E 023°36'1 1.9
2014-Apr-08 01:34N 37°56' E 023°37'1 0.1
2014-Apr-07 12:33N 37°57' E 023°36'1 0.7
2014-Apr-07 11:33N 37°57' E 023°37'0 0.4
2014-Apr-07 10:33N 37°57' E 023°36'1 0.6
2014-Apr-07 09:34N 37°57' E 023°36'1 0.7
2014-Apr-07 08:24N 37°57' E 023°37'1 0.7
2014-Apr-07 07:33N 37°57' E 023°36'1 0.6
2014-Apr-07 06:33N 37°57' E 023°37'1 0.5
2014-Apr-07 05:33N 37°57' E 023°36'2 1.9
2014-Apr-07 04:33N 37°55' E 023°36'1 1.4
2014-Apr-07 03:34N 37°56' E 023°37'2 0.0
2014-Apr-05 04:34N 37°57' E 023°35'1 0.7
2014-Apr-05 03:34N 37°57' E 023°36'0 0.0
2014-Apr-04 10:34N 37°58' E 023°36'1 1.0
2014-Apr-04 09:33N 37°57' E 023°36'1 0.9
2014-Apr-04 08:33N 37°57' E 023°37'0 0.0
2014-Apr-04 07:32N 37°57' E 023°37'1 0.7
2014-Apr-04 06:33N 37°57' E 023°36'1 0.7
2014-Apr-04 05:33N 37°57' E 023°37'1 0.8
2014-Apr-04 04:33N 37°57' E 023°36'2 1.5
2014-Apr-04 03:31N 37°56' E 023°37'2 0.2
2014-Apr-03 14:33N 37°57' E 023°35'1 0.1
2014-Apr-03 05:14N 37°57' E 023°37'0 0.3
2014-Apr-03 04:33N 37°58' E 023°36'2 1.6
2014-Apr-03 03:33N 37°56' E 023°37'1 0.1
2014-Apr-02 10:20N 37°57' E 023°36'1 0.8
2014-Apr-02 09:33N 37°57' E 023°35'1 1.2
2014-Apr-02 08:33N 37°58' E 023°34'2 0.5
2014-Apr-02 04:34N 37°57' E 023°36'1 1.2
2014-Apr-02 03:34N 37°56' E 023°37'0 0.0
2014-Apr-01 13:23N 37°56' E 023°37'1 1.7
2014-Apr-01 12:33N 37°57' E 023°37'0 0.0
2014-Apr-01 11:33N 37°57' E 023°37'0 0.4
2014-Apr-01 10:33N 37°57' E 023°36'0 0.4
2014-Apr-01 09:33N 37°57' E 023°37'0 0.0
2014-Apr-01 08:33N 37°57' E 023°37'0 0.0
2014-Apr-01 07:29N 37°57' E 023°37'0 0.0
2014-Apr-01 06:22N 37°57' E 023°37'0 0.0
2014-Apr-01 05:09N 37°57' E 023°37'1 2.0
2014-Apr-01 04:33N 37°57' E 023°35'  

Dump ship's entire track history

sailing weather and tide predictions

Armadores 1 — SY8463 — position and weather